LDSB

Details ICAO LDSB (BWK)
Name BRAC
Region Croatia
Timezone Europe/Zagreb (UTC+2.0)
Plans Departing 27
Arriving 56
Stats Elevation 1,776 ft / 541 m (AMSL)
Location 43.285721° 16.679720°
Runways 1
Magnetic Variation 3.932° E
Sunrise 2018-05-22 03:24:18 UTC / 2018-05-22 05:24:18 Local
Sunset 2018-05-22 18:18:26 UTC / 2018-05-22 20:18:26 Local
Advertisement - Login to hide

Runways

ID Width Length Bearing (true) Bearing (mag) Surface Threshold Offset Overrun Length
04 98 ft / 30 m 4,330 ft / 1,320 m 34.99° 31.06° Asphalt 0 ft / 0 m 0 ft / 0 m
22 98 ft / 30 m 4,330 ft / 1,320 m 215.00° 211.07° Asphalt 0 ft / 0 m 0 ft / 0 m

Map

Weather


0- 5 10 15 20 25 30 35+ Temperature / ° C

Clouds and Precipitation
Forecast for 2018-05-22 06:00 UTC. Updated 2 hours ago

Ground ~20,000 ft ~40,000 ft Winds

METAR

LDSB 220640Z 14009KT CAVOK 19/12 Q1016

TAF

TAF TAF LDSB 220608Z 2207/2306 14008KT 9999 SCT040 TX22/2213Z TN17/2303Z PROB30 TEMPO 2207/2213 TSRA FEW030CB SCT040 PROB40 TEMPO 2304/2306 4000 TSRA FEW025CB BKN030

Frequencies

Tower 118.02 MHz TWR
Approach 120.87 MHz SPLIT RDR
Approach 120.55 MHz SPLIT RDR
Approach 118.02 MHz APP
Approach 125.30 MHz SPLIT RDR
Warning: Do not use this data for real-world aviation or navigation. No guarantee of current accuracy is given.